createdAt,value
2023-02-04T00:00:52.198Z,8.79
2023-02-04T00:01:52.093Z,8.69
2023-02-04T00:02:52.066Z,8.76
2023-02-04T00:03:51.926Z,8.68
2023-02-04T00:04:51.842Z,8.70
2023-02-04T00:05:51.829Z,8.68
2023-02-04T00:06:51.676Z,8.66
2023-02-04T00:07:51.590Z,8.55
2023-02-04T00:08:51.513Z,8.60
2023-02-04T00:09:51.431Z,8.60
2023-02-04T00:10:51.344Z,8.57
2023-02-04T00:11:51.269Z,8.57
2023-02-04T00:12:51.176Z,8.60
2023-02-04T00:13:51.088Z,8.55
2023-02-04T00:14:51.012Z,8.50
2023-02-04T00:15:50.934Z,8.61
2023-02-04T00:16:50.864Z,8.58
2023-02-04T00:17:50.758Z,8.54
2023-02-04T00:18:50.674Z,8.58
2023-02-04T00:19:50.592Z,8.61
2023-02-04T00:20:50.516Z,8.60
2023-02-04T00:21:50.522Z,8.57
2023-02-04T00:22:50.340Z,8.60
2023-02-04T00:23:50.254Z,8.60
2023-02-04T00:24:50.177Z,8.66
2023-02-04T00:25:50.089Z,8.62
2023-02-04T00:26:50.016Z,8.65
2023-02-04T00:27:49.954Z,8.62
2023-02-04T00:28:49.839Z,8.65
2023-02-04T00:29:49.805Z,8.66
2023-02-04T00:30:49.674Z,8.66
2023-02-04T00:31:49.706Z,8.69
2023-02-04T00:32:49.526Z,8.58
2023-02-04T00:33:49.422Z,8.58
2023-02-04T00:34:49.343Z,8.57
2023-02-04T00:35:49.252Z,8.55
2023-02-04T00:36:49.171Z,8.54
2023-02-04T00:37:49.091Z,8.50
2023-02-04T00:38:49.005Z,8.39
2023-02-04T00:39:48.923Z,8.52
2023-02-04T00:40:48.840Z,8.60
2023-02-04T00:41:48.753Z,8.54
2023-02-04T00:42:48.678Z,8.61
2023-02-04T00:43:48.590Z,8.55
2023-02-04T00:44:48.504Z,8.60
2023-02-04T00:45:48.498Z,8.60
2023-02-04T00:46:48.338Z,8.58
2023-02-04T00:47:48.253Z,8.60
2023-02-04T00:48:48.189Z,8.54
2023-02-04T00:49:48.086Z,8.51
2023-02-04T00:50:48.008Z,8.51
2023-02-04T00:51:47.918Z,8.48
2023-02-04T00:52:47.837Z,8.48
2023-02-04T00:53:47.755Z,8.48
2023-02-04T00:54:47.670Z,8.51
2023-02-04T00:55:47.593Z,8.51
2023-02-04T00:56:47.508Z,8.57
2023-02-04T00:57:47.420Z,8.52
2023-02-04T00:58:47.335Z,8.50
2023-02-04T00:59:47.250Z,8.51
2023-02-04T01:00:47.178Z,8.48
2023-02-04T01:01:47.084Z,8.51
2023-02-04T01:02:47.108Z,8.42
2023-02-04T01:03:46.917Z,8.47
2023-02-04T01:04:46.905Z,8.48
2023-02-04T01:05:46.756Z,8.50
2023-02-04T01:06:46.674Z,8.50
2023-02-04T01:07:46.711Z,8.43
2023-02-04T01:08:46.505Z,8.51
2023-02-04T01:09:46.419Z,8.50
2023-02-04T01:10:46.339Z,8.44
2023-02-04T01:11:46.255Z,8.43
2023-02-04T01:12:46.174Z,8.40
2023-02-04T01:13:46.088Z,8.37
2023-02-04T01:14:46.002Z,8.42
2023-02-04T01:15:45.916Z,8.39
2023-02-04T01:16:45.998Z,8.39
2023-02-04T01:17:45.753Z,8.36
2023-02-04T01:18:45.668Z,8.44
2023-02-04T01:19:45.580Z,8.43
2023-02-04T01:20:45.521Z,8.40
2023-02-04T01:21:45.424Z,8.29
2023-02-04T01:22:45.403Z,8.33
2023-02-04T01:23:45.258Z,8.32
2023-02-04T01:24:45.174Z,8.34
2023-02-04T01:25:45.080Z,8.32
2023-02-04T01:26:44.997Z,8.36
2023-02-04T01:27:45.025Z,8.40
2023-02-04T01:28:44.829Z,8.36
2023-02-04T01:29:44.744Z,8.40
2023-02-04T01:30:44.720Z,8.37
2023-02-04T01:31:44.607Z,8.43
2023-02-04T01:32:44.755Z,8.44
2023-02-04T01:33:44.408Z,8.44
2023-02-04T01:34:44.323Z,8.47
2023-02-04T01:35:44.246Z,8.42
2023-02-04T01:36:44.397Z,8.50
2023-02-04T01:37:44.074Z,8.40
2023-02-04T01:38:43.990Z,8.42
2023-02-04T01:39:43.907Z,8.44
2023-02-04T01:40:43.822Z,8.48
2023-02-04T01:41:43.738Z,8.34
2023-02-04T01:42:43.653Z,8.48
2023-02-04T01:43:43.568Z,8.50
2023-02-04T01:44:43.484Z,8.44
2023-02-04T01:45:43.448Z,8.47
2023-02-04T01:46:43.325Z,8.48
2023-02-04T01:47:43.228Z,8.51
2023-02-04T01:48:43.147Z,8.47
2023-02-04T01:49:43.076Z,8.43
2023-02-04T01:50:42.974Z,8.39
2023-02-04T01:51:42.894Z,8.37
2023-02-04T01:52:42.830Z,8.39
2023-02-04T01:53:42.723Z,8.37
2023-02-04T01:54:42.639Z,8.39
2023-02-04T01:55:42.554Z,8.32
2023-02-04T01:56:42.519Z,8.34
2023-02-04T01:57:42.387Z,8.25
2023-02-04T01:58:42.304Z,8.33
2023-02-04T01:59:42.270Z,8.33
2023-02-04T02:00:42.141Z,8.33
2023-02-04T02:01:42.124Z,8.40
2023-02-04T02:02:42.061Z,8.39
2023-02-04T02:03:41.932Z,8.40
2023-02-04T02:04:41.796Z,8.30
2023-02-04T02:05:41.713Z,8.30
2023-02-04T02:06:41.632Z,8.27
2023-02-04T02:07:41.546Z,8.29
2023-02-04T02:08:41.480Z,8.36
2023-02-04T02:09:41.379Z,8.22
2023-02-04T02:10:41.511Z,8.22
2023-02-04T02:11:41.209Z,8.19
2023-02-04T02:12:41.121Z,8.27
2023-02-04T02:13:41.039Z,8.25
2023-02-04T02:14:40.954Z,8.24
2023-02-04T02:15:40.888Z,8.22
2023-02-04T02:16:40.812Z,8.24
2023-02-04T02:17:40.724Z,8.25
2023-02-04T02:18:40.631Z,8.14
2023-02-04T02:19:40.536Z,8.14
2023-02-04T02:20:40.450Z,8.09
2023-02-04T02:21:40.367Z,8.07
2023-02-04T02:22:40.284Z,8.03
2023-02-04T02:23:40.201Z,8.06
2023-02-04T02:24:40.144Z,8.03
2023-02-04T02:25:40.030Z,8.04
2023-02-04T02:26:39.949Z,8.09
2023-02-04T02:27:39.898Z,8.11
2023-02-04T02:28:39.778Z,7.99
2023-02-04T02:29:39.702Z,7.86
2023-02-04T02:30:39.642Z,7.91
2023-02-04T02:31:39.616Z,7.93
2023-02-04T02:32:39.442Z,7.99
2023-02-04T02:33:39.357Z,7.91
2023-02-04T02:34:39.278Z,7.86
2023-02-04T02:35:39.196Z,7.83
2023-02-04T02:36:39.104Z,7.88
2023-02-04T02:37:39.021Z,7.83
2023-02-04T02:38:39.042Z,7.91
2023-02-04T02:39:38.854Z,7.88
2023-02-04T02:40:38.797Z,7.86
2023-02-04T02:41:38.684Z,7.99
2023-02-04T02:42:38.600Z,7.94
2023-02-04T02:43:38.522Z,7.93
2023-02-04T02:44:38.439Z,7.91
2023-02-04T02:45:38.362Z,7.86
2023-02-04T02:46:38.265Z,7.83
2023-02-04T02:47:38.198Z,7.72
2023-02-04T02:48:38.092Z,7.75
2023-02-04T02:49:38.006Z,7.75
2023-02-04T02:50:37.924Z,7.73
2023-02-04T02:51:37.836Z,7.76
2023-02-04T02:52:37.757Z,7.72
2023-02-04T02:53:37.674Z,7.72
2023-02-04T02:54:37.586Z,7.72
2023-02-04T02:55:37.499Z,7.60
2023-02-04T02:56:37.435Z,7.59
2023-02-04T02:57:37.329Z,7.53
2023-02-04T02:58:37.246Z,7.59
2023-02-04T02:59:37.162Z,7.56
2023-02-04T03:00:37.080Z,7.53
2023-02-04T03:01:37.031Z,7.49
2023-02-04T03:02:36.967Z,7.45
2023-02-04T03:03:36.821Z,7.49
2023-02-04T03:04:36.737Z,7.44
2023-02-04T03:05:36.656Z,7.41
2023-02-04T03:06:36.571Z,7.35
2023-02-04T03:07:36.489Z,7.41
2023-02-04T03:08:36.399Z,7.35
2023-02-04T03:09:36.315Z,7.35
2023-02-04T03:10:36.237Z,7.37
2023-02-04T03:11:36.145Z,7.41
2023-02-04T03:12:36.088Z,7.37
2023-02-04T03:13:35.977Z,7.27
2023-02-04T03:14:35.895Z,7.29
2023-02-04T03:15:35.869Z,7.26
2023-02-04T03:16:35.730Z,7.24
2023-02-04T03:17:35.648Z,7.17
2023-02-04T03:18:35.555Z,7.21
2023-02-04T03:19:35.469Z,7.20
2023-02-04T03:20:35.388Z,7.24
2023-02-04T03:21:35.316Z,7.23
2023-02-04T03:22:35.220Z,7.34
2023-02-04T03:23:35.137Z,7.27
2023-02-04T03:24:35.050Z,7.17
2023-02-04T03:25:35.014Z,7.24
2023-02-04T03:26:34.887Z,7.24
2023-02-04T03:27:34.796Z,7.21
2023-02-04T03:28:34.739Z,7.16
2023-02-04T03:29:34.631Z,7.24
2023-02-04T03:30:34.547Z,7.17
2023-02-04T03:31:34.557Z,7.26
2023-02-04T03:32:34.377Z,7.27
2023-02-04T03:33:34.293Z,7.26
2023-02-04T03:34:34.204Z,7.13
2023-02-04T03:35:34.128Z,7.17
2023-02-04T03:36:34.051Z,7.20
2023-02-04T03:37:33.952Z,7.17
2023-02-04T03:38:33.869Z,7.11
2023-02-04T03:39:33.793Z,7.16
2023-02-04T03:40:33.728Z,7.02
2023-02-04T03:41:33.671Z,7.06
2023-02-04T03:42:33.544Z,7.02
2023-02-04T03:43:34.145Z,7.03
2023-02-04T03:44:33.383Z,7.03
2023-02-04T03:45:44.731Z,7.11
2023-02-04T03:46:33.213Z,7.09
2023-02-04T03:47:33.116Z,7.01
2023-02-04T03:48:33.025Z,7.16
2023-02-04T03:49:32.949Z,7.16
2023-02-04T03:50:33.155Z,7.13
2023-02-04T03:51:32.769Z,7.12
2023-02-04T03:52:32.984Z,7.01
2023-02-04T03:53:32.609Z,7.02
2023-02-04T03:54:32.516Z,7.06
2023-02-04T03:55:32.450Z,7.01
2023-02-04T03:56:32.348Z,6.99
2023-02-04T03:57:32.269Z,7.08
2023-02-04T03:58:32.183Z,6.99
2023-02-04T03:59:32.094Z,7.08
2023-02-04T04:00:32.427Z,7.09
2023-02-04T04:01:31.975Z,7.03
2023-02-04T04:02:31.973Z,7.02
2023-02-04T04:03:31.768Z,7.03
2023-02-04T04:04:31.680Z,7.06
2023-02-04T04:05:31.592Z,7.01
2023-02-04T04:06:31.513Z,7.09
2023-02-04T04:07:31.424Z,7.06
2023-02-04T04:08:31.333Z,7.05
2023-02-04T04:09:31.300Z,7.03
2023-02-04T04:10:31.602Z,7.09
2023-02-04T04:11:31.081Z,6.96
2023-02-04T04:12:31.001Z,6.83
2023-02-04T04:13:30.950Z,6.87
2023-02-04T04:14:30.831Z,6.90
2023-02-04T04:15:30.749Z,6.80
2023-02-04T04:16:30.689Z,6.81
2023-02-04T04:17:30.581Z,6.70
2023-02-04T04:18:30.499Z,6.66
2023-02-04T04:19:30.405Z,6.70
2023-02-04T04:20:30.842Z,6.72
2023-02-04T04:21:30.238Z,6.72
2023-02-04T04:22:30.176Z,6.72
2023-02-04T04:23:30.070Z,6.72
2023-02-04T04:24:30.132Z,6.75
2023-02-04T04:25:29.898Z,6.70
2023-02-04T04:26:29.815Z,6.72
2023-02-04T04:27:29.729Z,6.68
2023-02-04T04:28:29.644Z,6.72
2023-02-04T04:29:29.557Z,6.75
2023-02-04T04:30:30.077Z,6.69
2023-02-04T04:31:29.519Z,6.72
2023-02-04T04:32:29.322Z,6.65
2023-02-04T04:33:29.217Z,6.50
2023-02-04T04:34:29.140Z,6.59
2023-02-04T04:35:29.052Z,6.54
2023-02-04T04:36:28.962Z,6.52
2023-02-04T04:37:28.877Z,6.52
2023-02-04T04:38:28.793Z,6.52
2023-02-04T04:39:28.709Z,6.50
2023-02-04T04:40:28.648Z,6.41
2023-02-04T04:41:28.537Z,6.39
2023-02-04T04:42:28.458Z,6.26
2023-02-04T04:43:28.368Z,6.24
2023-02-04T04:44:28.283Z,6.36
2023-02-04T04:45:28.201Z,6.37
2023-02-04T04:46:28.123Z,6.17
2023-02-04T04:47:28.027Z,6.21
2023-02-04T04:48:27.964Z,6.14
2023-02-04T04:49:27.858Z,6.30
2023-02-04T04:50:27.774Z,6.21
2023-02-04T04:51:27.694Z,6.14
2023-02-04T04:52:27.605Z,6.29
2023-02-04T04:53:27.523Z,6.30
2023-02-04T04:54:27.445Z,6.29
2023-02-04T04:55:27.350Z,6.15
2023-02-04T04:56:27.266Z,6.26
2023-02-04T04:57:27.183Z,6.14
2023-02-04T04:58:27.097Z,6.13
2023-02-04T04:59:27.010Z,6.13
2023-02-04T05:00:27.338Z,6.18
2023-02-04T05:01:26.842Z,6.14
2023-02-04T05:02:26.762Z,6.21
2023-02-04T05:03:26.782Z,6.18
2023-02-04T05:04:26.636Z,6.17
2023-02-04T05:05:26.508Z,6.03
2023-02-04T05:06:26.424Z,6.07
2023-02-04T05:07:26.740Z,6.07
2023-02-04T05:08:26.258Z,6.07
2023-02-04T05:09:26.170Z,6.00
2023-02-04T05:10:26.085Z,5.95
2023-02-04T05:11:26.002Z,5.83
2023-02-04T05:12:25.929Z,5.88
2023-02-04T05:13:25.931Z,5.95
2023-02-04T05:14:25.753Z,5.86
2023-02-04T05:15:25.664Z,5.88
2023-02-04T05:16:25.638Z,5.77
2023-02-04T05:17:26.243Z,5.71
2023-02-04T05:18:25.415Z,5.72
2023-02-04T05:19:25.331Z,5.67
2023-02-04T05:20:25.260Z,5.65
2023-02-04T05:21:25.153Z,5.72
2023-02-04T05:22:25.069Z,5.59
2023-02-04T05:23:24.983Z,5.54
2023-02-04T05:24:24.902Z,5.49
2023-02-04T05:25:24.813Z,5.45
2023-02-04T05:26:30.178Z,5.49
2023-02-04T05:27:24.647Z,5.50
2023-02-04T05:28:24.559Z,5.41
2023-02-04T05:29:24.475Z,5.35
2023-02-04T05:30:24.400Z,5.31
2023-02-04T05:31:24.363Z,5.24
2023-02-04T05:32:24.221Z,5.34
2023-02-04T05:33:24.135Z,5.29
2023-02-04T05:34:24.052Z,5.23
2023-02-04T05:35:23.965Z,5.20
2023-02-04T05:36:23.897Z,5.26
2023-02-04T05:37:23.794Z,5.17
2023-02-04T05:38:23.709Z,5.10
2023-02-04T05:39:23.645Z,5.03
2023-02-04T05:40:23.535Z,5.03
2023-02-04T05:41:23.448Z,5.05
2023-02-04T05:42:23.367Z,4.87
2023-02-04T05:43:23.277Z,4.87
2023-02-04T05:44:23.195Z,4.92
2023-02-04T05:45:23.177Z,4.95
2023-02-04T05:46:23.024Z,4.91
2023-02-04T05:47:22.943Z,4.96
2023-02-04T05:48:22.854Z,4.85
2023-02-04T05:49:22.766Z,4.91
2023-02-04T05:50:22.680Z,4.85
2023-02-04T05:51:22.594Z,4.79
2023-02-04T05:52:22.524Z,4.88
2023-02-04T05:53:22.422Z,4.85
2023-02-04T05:54:22.346Z,4.66
2023-02-04T05:55:22.248Z,4.77
2023-02-04T05:56:22.369Z,4.73
2023-02-04T05:57:22.079Z,4.77
2023-02-04T05:58:21.993Z,4.68
2023-02-04T05:59:21.906Z,4.73
2023-02-04T06:00:21.834Z,4.77
2023-02-04T06:01:21.739Z,4.79
2023-02-04T06:02:21.655Z,4.74
2023-02-04T06:03:21.711Z,4.77
2023-02-04T06:04:21.561Z,4.74
2023-02-04T06:05:21.391Z,4.88
2023-02-04T06:06:21.307Z,4.80
2023-02-04T06:07:21.221Z,4.85
2023-02-04T06:08:21.156Z,4.79
2023-02-04T06:09:21.050Z,4.83
2023-02-04T06:10:20.962Z,4.98
2023-02-04T06:11:20.877Z,4.88
2023-02-04T06:12:20.791Z,4.79
2023-02-04T06:13:20.704Z,4.87
2023-02-04T06:14:20.623Z,4.77
2023-02-04T06:15:20.544Z,4.96
2023-02-04T06:16:20.484Z,4.96
2023-02-04T06:17:20.362Z,4.80
2023-02-04T06:18:20.281Z,4.76
2023-02-04T06:19:20.195Z,4.77
2023-02-04T06:20:20.117Z,4.80
2023-02-04T06:21:20.028Z,4.85
2023-02-04T06:22:19.935Z,4.79
2023-02-04T06:23:19.844Z,4.80
2023-02-04T06:24:19.793Z,4.88
2023-02-04T06:25:19.674Z,4.85
2023-02-04T06:26:19.993Z,4.88
2023-02-04T06:27:19.502Z,4.85
2023-02-04T06:28:19.496Z,4.80
2023-02-04T06:29:19.330Z,4.76
2023-02-04T06:30:19.284Z,4.88
2023-02-04T06:31:19.262Z,4.77
2023-02-04T06:32:19.076Z,4.74
2023-02-04T06:33:18.987Z,4.76
2023-02-04T06:34:18.902Z,4.77
2023-02-04T06:35:18.816Z,4.73
2023-02-04T06:36:18.737Z,4.77
2023-02-04T06:37:18.649Z,4.87
2023-02-04T06:38:18.561Z,4.84
2023-02-04T06:39:18.487Z,4.85
2023-02-04T06:40:18.406Z,4.77
2023-02-04T06:41:18.302Z,4.69
2023-02-04T06:42:18.220Z,4.61
2023-02-04T06:43:18.131Z,4.65
2023-02-04T06:44:18.046Z,4.62
2023-02-04T06:45:17.959Z,4.68
2023-02-04T06:46:17.954Z,4.61
2023-02-04T06:47:17.788Z,4.52
2023-02-04T06:48:17.702Z,4.48
2023-02-04T06:49:17.615Z,4.47
2023-02-04T06:50:17.528Z,4.44
2023-02-04T06:51:17.445Z,4.48
2023-02-04T06:52:17.354Z,4.44
2023-02-04T06:53:17.274Z,4.47
2023-02-04T06:54:17.183Z,4.38
2023-02-04T06:55:17.103Z,4.32
2023-02-04T06:56:17.031Z,4.41
2023-02-04T06:57:16.926Z,4.46
2023-02-04T06:58:16.843Z,4.30
2023-02-04T06:59:16.770Z,4.38
2023-02-04T07:00:16.679Z,4.41
2023-02-04T07:01:16.625Z,4.36
2023-02-04T07:02:16.561Z,4.46
2023-02-04T07:03:16.412Z,4.55
2023-02-04T07:04:16.322Z,4.52
2023-02-04T07:05:16.241Z,4.59
2023-02-04T07:06:16.164Z,4.65
2023-02-04T07:07:16.070Z,4.65
2023-02-04T07:08:15.982Z,4.73
2023-02-04T07:09:15.900Z,4.74
2023-02-04T07:10:15.808Z,4.74
2023-02-04T07:11:15.723Z,4.80
2023-02-04T07:12:16.431Z,4.85
2023-02-04T07:13:15.559Z,4.93
2023-02-04T07:14:15.467Z,4.92
2023-02-04T07:15:15.380Z,5.00
2023-02-04T07:16:15.343Z,5.08
2023-02-04T07:17:15.209Z,5.02
2023-02-04T07:18:15.122Z,5.11
2023-02-04T07:19:15.060Z,5.06
2023-02-04T07:20:14.948Z,5.13
2023-02-04T07:21:14.871Z,5.14
2023-02-04T07:22:15.032Z,5.11
2023-02-04T07:23:14.698Z,5.18
2023-02-04T07:24:14.607Z,5.23
2023-02-04T07:25:14.526Z,5.17
2023-02-04T07:26:14.438Z,5.20
2023-02-04T07:27:14.360Z,5.32
2023-02-04T07:28:14.396Z,5.28
2023-02-04T07:29:17.575Z,5.34
2023-02-04T07:30:14.141Z,5.29
2023-02-04T07:31:14.148Z,5.26
2023-02-04T07:32:13.924Z,5.29
2023-02-04T07:33:13.856Z,5.35
2023-02-04T07:34:13.755Z,5.41
2023-02-04T07:35:13.667Z,5.50
2023-02-04T07:36:15.254Z,5.47
2023-02-04T07:37:13.497Z,5.56
2023-02-04T07:38:13.410Z,5.57
2023-02-04T07:39:13.321Z,5.59
2023-02-04T07:40:13.234Z,5.56
2023-02-04T07:41:13.150Z,5.50
2023-02-04T07:42:13.065Z,5.70
2023-02-04T07:43:12.985Z,5.62
2023-02-04T07:44:12.912Z,5.71
2023-02-04T07:45:12.804Z,5.74
2023-02-04T07:46:12.755Z,5.62
2023-02-04T07:47:12.637Z,5.65
2023-02-04T07:48:12.551Z,5.63
2023-02-04T07:49:12.462Z,5.74
2023-02-04T07:50:12.378Z,5.75
2023-02-04T07:51:12.292Z,5.80
2023-02-04T07:52:12.206Z,5.72
2023-02-04T07:53:12.120Z,5.68
2023-02-04T07:54:12.037Z,5.80
2023-02-04T07:55:11.949Z,5.80
2023-02-04T07:56:11.863Z,5.95
2023-02-04T07:57:11.780Z,5.96
2023-02-04T07:58:11.793Z,5.92
2023-02-04T07:59:11.613Z,5.93
2023-02-04T08:00:11.548Z,5.93
2023-02-04T08:01:11.485Z,5.93
2023-02-04T08:02:11.367Z,6.00
2023-02-04T08:03:11.268Z,5.96
2023-02-04T08:04:11.183Z,6.00
2023-02-04T08:05:11.115Z,6.00
2023-02-04T08:06:11.016Z,6.13
2023-02-04T08:07:10.928Z,6.04
2023-02-04T08:08:10.841Z,6.07
2023-02-04T08:09:10.761Z,6.14
2023-02-04T08:10:10.671Z,6.17
2023-02-04T08:11:10.586Z,6.21
2023-02-04T08:12:10.506Z,6.18
2023-02-04T08:13:10.417Z,6.13
2023-02-04T08:14:10.334Z,6.14
2023-02-04T08:15:10.249Z,6.15
2023-02-04T08:16:11.940Z,6.06
2023-02-04T08:17:10.095Z,6.00
2023-02-04T08:18:10.002Z,5.99
2023-02-04T08:19:09.908Z,6.00
2023-02-04T08:20:09.825Z,6.03
2023-02-04T08:21:09.738Z,6.00
2023-02-04T08:22:09.654Z,5.93
2023-02-04T08:23:09.571Z,5.89
2023-02-04T08:24:09.486Z,5.78
2023-02-04T08:25:09.600Z,5.74
2023-02-04T08:26:09.315Z,5.67
2023-02-04T08:27:09.229Z,5.63
2023-02-04T08:28:09.156Z,5.53
2023-02-04T08:29:09.058Z,5.59
2023-02-04T08:30:09.015Z,5.42
2023-02-04T08:31:08.978Z,5.39
2023-02-04T08:32:08.821Z,5.31
2023-02-04T08:33:08.722Z,5.36
2023-02-04T08:34:08.636Z,5.38
2023-02-04T08:35:08.554Z,5.32
2023-02-04T08:36:08.465Z,5.41
2023-02-04T08:37:08.378Z,5.45
2023-02-04T08:38:08.290Z,5.41
2023-02-04T08:39:08.207Z,5.50
2023-02-04T08:40:08.120Z,5.52
2023-02-04T08:41:08.037Z,5.54
2023-02-04T08:42:07.954Z,5.57
2023-02-04T08:43:07.869Z,5.52
2023-02-04T08:44:07.779Z,5.62
2023-02-04T08:45:07.700Z,5.62
2023-02-04T08:46:07.627Z,5.72
2023-02-04T08:47:07.537Z,5.81
2023-02-04T08:48:07.470Z,5.85
2023-02-04T08:49:07.718Z,5.92
2023-02-04T08:50:07.587Z,5.99
2023-02-04T08:51:07.209Z,5.97
2023-02-04T08:52:07.220Z,6.10
2023-02-04T08:53:07.035Z,6.10
2023-02-04T08:54:06.955Z,6.17
2023-02-04T08:55:06.922Z,6.14
2023-02-04T08:56:06.785Z,6.30
2023-02-04T08:57:06.701Z,6.34
2023-02-04T08:58:06.627Z,6.48
2023-02-04T08:59:06.533Z,6.63
2023-02-04T09:00:06.446Z,6.63
2023-02-04T09:01:06.481Z,6.73
2023-02-04T09:02:06.352Z,6.78
2023-02-04T09:03:06.201Z,6.86
2023-02-04T09:04:06.134Z,7.01
2023-02-04T09:05:06.033Z,6.90
2023-02-04T09:06:05.949Z,7.05
2023-02-04T09:07:05.864Z,7.05
2023-02-04T09:08:05.793Z,7.02
2023-02-04T09:09:05.698Z,7.20
2023-02-04T09:10:05.615Z,7.19
2023-02-04T09:11:05.530Z,7.35
2023-02-04T09:12:05.447Z,7.39
2023-02-04T09:13:05.360Z,7.37
2023-02-04T09:14:05.279Z,7.37
2023-02-04T09:15:05.195Z,7.44
2023-02-04T09:16:05.143Z,7.39
2023-02-04T09:17:05.030Z,7.44
2023-02-04T09:18:04.999Z,7.48
2023-02-04T09:19:04.869Z,7.49
2023-02-04T09:20:04.800Z,7.48
2023-02-04T09:21:04.699Z,7.55
2023-02-04T09:22:04.613Z,7.53
2023-02-04T09:23:04.539Z,7.72
2023-02-04T09:24:04.448Z,7.72
2023-02-04T09:25:04.385Z,7.57
2023-02-04T09:26:04.282Z,7.72
2023-02-04T09:27:04.199Z,7.79
2023-02-04T09:28:04.188Z,7.82
2023-02-04T09:29:04.035Z,7.81
2023-02-04T09:30:04.152Z,7.88
2023-02-04T09:31:04.706Z,7.91
2023-02-04T09:32:03.799Z,7.99
2023-02-04T09:33:03.708Z,7.96
2023-02-04T09:34:03.618Z,8.06
2023-02-04T09:35:03.538Z,8.03
2023-02-04T09:36:03.470Z,8.06
2023-02-04T09:37:03.378Z,8.15
2023-02-04T09:38:03.287Z,8.07
2023-02-04T09:39:03.206Z,8.14
2023-02-04T09:40:03.120Z,8.19
2023-02-04T09:41:03.090Z,8.03
2023-02-04T09:42:02.975Z,8.04
2023-02-04T09:43:02.887Z,8.11
2023-02-04T09:44:02.792Z,8.12
2023-02-04T09:45:02.960Z,8.06
2023-02-04T09:46:02.755Z,8.03
2023-02-04T09:47:02.638Z,8.03
2023-02-04T09:48:02.466Z,8.19
2023-02-04T09:49:02.381Z,8.25
2023-02-04T09:50:02.298Z,8.19
2023-02-04T09:51:02.219Z,8.22
2023-02-04T09:52:02.155Z,8.24
2023-02-04T09:53:02.055Z,8.30
2023-02-04T09:54:01.962Z,8.14
2023-02-04T09:55:01.878Z,8.09
2023-02-04T09:56:01.792Z,8.18
2023-02-04T09:57:01.814Z,8.14
2023-02-04T09:58:01.625Z,8.14
2023-02-04T09:59:01.560Z,8.18
2023-02-04T10:00:01.528Z,8.04
2023-02-04T10:01:01.495Z,8.18
2023-02-04T10:02:01.292Z,8.18
2023-02-04T10:03:01.208Z,8.15
2023-02-04T10:04:01.241Z,8.00
2023-02-04T10:05:01.504Z,8.12
2023-02-04T10:06:00.964Z,8.03
2023-02-04T10:07:00.945Z,8.18
2023-02-04T10:08:00.855Z,8.17
2023-02-04T10:09:00.707Z,8.21
2023-02-04T10:10:00.633Z,8.21
2023-02-04T10:11:00.545Z,8.29
2023-02-04T10:12:00.803Z,8.47
2023-02-04T10:13:00.375Z,8.51
2023-02-04T10:14:00.297Z,8.55
2023-02-04T10:15:00.212Z,8.69
2023-02-04T10:16:00.147Z,8.77
2023-02-04T10:17:00.095Z,8.88
2023-02-04T10:17:59.975Z,8.98
2023-02-04T10:18:59.874Z,9.14
2023-02-04T10:19:59.793Z,9.17
2023-02-04T10:20:59.713Z,9.25
2023-02-04T10:21:59.630Z,9.27
2023-02-04T10:22:59.554Z,9.40
2023-02-04T10:23:59.535Z,9.37
2023-02-04T10:24:59.385Z,9.34
2023-02-04T10:25:59.606Z,9.43
2023-02-04T10:26:59.222Z,9.32
2023-02-04T10:27:59.175Z,9.38
2023-02-04T10:28:59.062Z,9.49
2023-02-04T10:29:58.984Z,9.35
2023-02-04T10:30:59.274Z,9.38
2023-02-04T10:31:58.891Z,9.35
2023-02-04T10:32:58.747Z,9.38
2023-02-04T10:33:58.709Z,9.32
2023-02-04T10:34:58.582Z,9.22
2023-02-04T10:35:58.496Z,9.12
2023-02-04T10:36:58.417Z,9.05
2023-02-04T10:37:58.336Z,8.91
2023-02-04T10:38:58.308Z,8.88
2023-02-04T10:39:58.196Z,8.91
2023-02-04T10:40:58.093Z,8.85
2023-02-04T10:41:58.038Z,8.91
2023-02-04T10:42:57.931Z,8.91
2023-02-04T10:43:57.851Z,8.87
2023-02-04T10:44:57.768Z,8.85
2023-02-04T10:45:57.752Z,8.90
2023-02-04T10:46:57.605Z,9.00
2023-02-04T10:47:57.526Z,9.20
2023-02-04T10:48:57.442Z,9.50
2023-02-04T10:49:57.370Z,9.68
2023-02-04T10:50:57.279Z,9.82
2023-02-04T10:51:57.917Z,9.78
2023-02-04T10:52:57.115Z,9.60
2023-02-04T10:53:57.100Z,9.46
2023-02-04T10:54:56.952Z,9.43
2023-02-04T10:55:56.893Z,9.52
2023-02-04T10:56:56.790Z,9.60
2023-02-04T10:57:56.720Z,9.61
2023-02-04T10:58:56.628Z,9.56
2023-02-04T10:59:56.549Z,9.65
2023-02-04T11:00:56.515Z,9.83
2023-02-04T11:01:56.388Z,9.82
2023-02-04T11:02:56.365Z,9.93
2023-02-04T11:03:56.227Z,10.11
2023-02-04T11:04:56.149Z,10.13
2023-02-04T11:05:56.067Z,10.28
2023-02-04T11:06:55.985Z,10.40
2023-02-04T11:07:55.908Z,10.22
2023-02-04T11:08:55.824Z,9.89
2023-02-04T11:09:55.745Z,9.88
2023-02-04T11:10:55.663Z,9.88
2023-02-04T11:11:55.600Z,9.86
2023-02-04T11:12:55.804Z,10.11
2023-02-04T11:13:55.425Z,10.23
2023-02-04T11:14:55.344Z,10.25
2023-02-04T11:15:55.351Z,10.49
2023-02-04T11:16:55.183Z,10.46
2023-02-04T11:17:55.102Z,10.44
2023-02-04T11:18:55.025Z,10.43
2023-02-04T11:19:54.944Z,10.69
2023-02-04T11:20:54.872Z,10.81
2023-02-04T11:21:54.785Z,10.69
2023-02-04T11:22:54.738Z,10.59
2023-02-04T11:23:54.627Z,10.46
2023-02-04T11:24:54.547Z,10.33
2023-02-04T11:25:54.465Z,10.21
2023-02-04T11:26:54.388Z,10.10
2023-02-04T11:27:54.370Z,9.97
2023-02-04T11:28:54.274Z,9.70
2023-02-04T11:29:54.151Z,9.49
2023-02-04T11:30:54.136Z,9.43
2023-02-04T11:31:54.116Z,9.37
2023-02-04T11:32:54.207Z,9.22
2023-02-04T11:33:53.827Z,9.00
2023-02-04T11:34:53.746Z,8.90
2023-02-04T11:35:53.666Z,8.94
2023-02-04T11:36:53.585Z,9.03
2023-02-04T11:37:55.776Z,8.97
2023-02-04T11:38:53.421Z,9.02
2023-02-04T11:39:53.347Z,9.17
2023-02-04T11:40:53.460Z,9.27
2023-02-04T11:41:53.181Z,9.31
2023-02-04T11:42:53.097Z,9.28
2023-02-04T11:43:53.038Z,9.42
2023-02-04T11:44:52.949Z,9.50
2023-02-04T11:45:52.871Z,9.50
2023-02-04T11:46:52.770Z,9.50
2023-02-04T11:47:52.703Z,9.46
2023-02-04T11:48:52.611Z,9.60
2023-02-04T11:49:52.531Z,9.90
2023-02-04T11:50:52.449Z,10.55
2023-02-04T11:51:52.370Z,11.18
2023-02-04T11:52:52.292Z,11.75
2023-02-04T11:53:52.212Z,12.33
2023-02-04T11:54:52.130Z,12.49
2023-02-04T11:55:52.051Z,12.59
2023-02-04T11:56:51.971Z,12.30
2023-02-04T11:57:51.895Z,11.89
2023-02-04T11:58:51.812Z,11.38
2023-02-04T11:59:51.758Z,11.14
2023-02-04T12:00:51.659Z,11.03
2023-02-04T12:02:51.607Z,10.69
2023-02-04T12:03:51.480Z,10.65
2023-02-04T12:04:51.345Z,10.26
2023-02-04T12:05:51.266Z,10.11
2023-02-04T12:06:51.186Z,9.98
2023-02-04T12:07:51.106Z,9.90
2023-02-04T12:08:51.030Z,9.74
2023-02-04T12:09:51.960Z,9.75
2023-02-04T12:10:50.872Z,9.67
2023-02-04T12:11:50.790Z,9.70
2023-02-04T12:12:50.912Z,9.58
2023-02-04T12:13:50.636Z,9.38
2023-02-04T12:14:50.553Z,9.38
2023-02-04T12:15:50.532Z,9.45
2023-02-04T12:16:50.391Z,9.45
2023-02-04T12:17:50.313Z,9.38
2023-02-04T12:18:50.235Z,9.50
2023-02-04T12:19:50.152Z,9.46
2023-02-04T12:20:50.076Z,9.42
2023-02-04T12:21:49.994Z,9.29
2023-02-04T12:22:49.911Z,9.31
2023-02-04T12:23:50.085Z,9.25
2023-02-04T12:24:49.759Z,9.16
2023-02-04T12:25:49.672Z,9.12
2023-02-04T12:26:49.592Z,9.02
2023-02-04T12:27:49.547Z,8.98
2023-02-04T12:28:49.430Z,9.06
2023-02-04T12:29:49.350Z,9.06
2023-02-04T12:30:49.307Z,9.02
2023-02-04T12:31:49.459Z,9.03
2023-02-04T12:32:49.113Z,9.14
2023-02-04T12:33:49.023Z,9.28
2023-02-04T12:34:49.192Z,9.34
2023-02-04T12:35:48.861Z,9.42
2023-02-04T12:36:48.787Z,9.47
2023-02-04T12:37:48.700Z,9.49
2023-02-04T12:38:48.619Z,9.67
2023-02-04T12:39:48.537Z,9.71
2023-02-04T12:40:48.457Z,9.90
2023-02-04T12:41:48.378Z,10.11
2023-02-04T12:42:48.292Z,10.07
2023-02-04T12:43:48.212Z,10.19
2023-02-04T12:44:48.133Z,10.23
2023-02-04T12:45:48.054Z,10.47
2023-02-04T12:46:48.005Z,10.65
2023-02-04T12:47:47.912Z,10.95
2023-02-04T12:48:47.812Z,10.81
2023-02-04T12:49:47.749Z,10.65
2023-02-04T12:50:47.649Z,10.36
2023-02-04T12:51:47.570Z,10.16
2023-02-04T12:52:47.492Z,10.00
2023-02-04T12:53:47.413Z,9.97
2023-02-04T12:54:47.331Z,9.89
2023-02-04T12:55:47.250Z,9.71
2023-02-04T12:56:47.172Z,9.56
2023-02-04T12:57:47.090Z,9.63
2023-02-04T12:58:47.113Z,9.58
2023-02-04T12:59:46.936Z,9.72
2023-02-04T13:00:46.915Z,9.75
2023-02-04T13:01:46.815Z,9.74
2023-02-04T13:02:46.699Z,9.74
2023-02-04T13:03:46.634Z,9.75
2023-02-04T13:04:46.535Z,9.75
2023-02-04T13:05:46.456Z,9.79
2023-02-04T13:06:46.368Z,9.75
2023-02-04T13:07:46.295Z,9.72
2023-02-04T13:08:46.211Z,9.82
2023-02-04T13:09:46.133Z,9.96
2023-02-04T13:10:46.101Z,9.92
2023-02-04T13:11:45.972Z,10.07
2023-02-04T13:12:45.894Z,10.07
2023-02-04T13:13:45.810Z,10.06
2023-02-04T13:14:45.735Z,9.93
2023-02-04T13:15:45.652Z,9.89
2023-02-04T13:16:45.571Z,9.93